Time;durP1;ratioP1;P1;durP2;ratioP2;P2;SDS_P1;SDS_P2;PMS_P1;PMS_P2;Temp;Humidity;BMP_temperature;BMP_pressure;BME280_temperature;BME280_humidity;BME280_pressure;Samples;Min_cycle;Max_cycle;Signal;HPM_P1;HPM_P2
2023/04/06 00:01:58;;;;;;;11.43;5.38;;;-2.00;99.90;;;;;;5026073;28;20060;-38
2023/04/06 00:04:26;;;;;;;9.02;6.00;;;-2.00;99.90;;;;;;5026032;28;20041;-37
2023/04/06 00:06:54;;;;;;;10.27;4.93;;;-2.10;99.90;;;;;;5026471;28;20056;-36
2023/04/06 00:09:21;;;;;;;7.05;6.30;;;-2.20;99.90;;;;;;5028161;28;20053;-36
2023/04/06 00:11:49;;;;;;;6.18;5.60;;;-2.40;99.90;;;;;;5026201;28;20398;-37
2023/04/06 00:14:17;;;;;;;7.38;5.63;;;-2.40;99.90;;;;;;5026170;28;20053;-36
2023/04/06 00:16:45;;;;;;;6.35;5.75;;;-2.40;99.90;;;;;;5026989;28;20053;-37
2023/04/06 00:19:12;;;;;;;7.10;5.72;;;-2.40;99.90;;;;;;5025870;28;20053;-36
2023/04/06 00:21:40;;;;;;;6.95;5.45;;;-2.40;99.90;;;;;;5026991;28;20060;-37
2023/04/06 00:24:07;;;;;;;9.50;6.32;;;-2.40;99.90;;;;;;5019483;28;20050;-37
2023/04/06 00:26:35;;;;;;;9.57;6.70;;;-2.40;99.90;;;;;;5024001;28;20049;-37
2023/04/06 00:29:03;;;;;;;8.23;5.80;;;-2.40;99.90;;;;;;5025788;28;20060;-36
2023/04/06 00:31:30;;;;;;;6.25;4.88;;;-2.40;99.90;;;;;;5026252;28;20449;-36
2023/04/06 00:33:58;;;;;;;5.28;4.60;;;-2.40;99.90;;;;;;5025097;28;20510;-35
2023/04/06 00:36:26;;;;;;;7.53;5.82;;;-2.40;99.90;;;;;;5027066;28;20184;-36
2023/04/06 00:38:54;;;;;;;9.82;6.78;;;-2.40;99.90;;;;;;5008655;28;20441;-36
2023/04/06 00:41:22;;;;;;;7.63;5.53;;;-2.40;99.90;;;;;;5024869;28;20391;-37
2023/04/06 00:43:50;;;;;;;7.78;5.90;;;-2.50;99.90;;;;;;5024088;28;20041;-36
2023/04/06 00:46:17;;;;;;;11.85;6.10;;;-2.40;99.90;;;;;;5024045;28;20421;-37
2023/04/06 00:48:45;;;;;;;5.22;4.75;;;-2.40;99.90;;;;;;5025367;28;20057;-35
2023/04/06 00:51:13;;;;;;;9.80;6.68;;;-2.40;99.90;;;;;;5025115;28;20056;-36
2023/04/06 00:53:40;;;;;;;7.28;6.53;;;-2.50;99.90;;;;;;5027055;28;20061;-37
2023/04/06 00:56:09;;;;;;;7.13;5.80;;;-2.50;99.90;;;;;;5024418;28;20050;-40
2023/04/06 00:58:48;;;;;;;7.10;6.05;;;-2.50;99.90;;;;;;5025913;28;20049;-36
2023/04/06 01:01:16;;;;;;;6.18;5.57;;;-2.50;99.90;;;;;;5025396;28;20057;-36
2023/04/06 01:03:48;;;;;;;6.85;5.90;;;-2.60;99.90;;;;;;5020846;28;20049;-37
2023/04/06 01:06:17;;;;;;;7.18;5.82;;;-2.70;99.90;;;;;;5008137;28;20389;-36
2023/04/06 01:08:52;;;;;;;7.13;5.80;;;-2.70;99.90;;;;;;5008723;28;20057;-37
2023/04/06 01:11:22;;;;;;;6.80;5.60;;;-2.70;99.90;;;;;;5014287;28;20058;-36
2023/04/06 01:13:51;;;;;;;7.95;6.43;;;-2.70;99.90;;;;;;5005944;28;20058;-36
2023/04/06 01:16:26;;;;;;;7.60;6.05;;;-2.60;99.90;;;;;;5016603;28;20054;-37
2023/04/06 01:19:15;;;;;;;8.20;6.40;;;-2.50;99.90;;;;;;5016423;28;20354;-37
2023/04/06 01:21:52;;;;;;;6.43;5.93;;;-2.60;99.90;;;;;;5007312;28;20446;-36
2023/04/06 01:24:32;;;;;;;6.60;5.57;;;-2.60;99.90;;;;;;5019812;28;20418;-37
2023/04/06 01:27:11;;;;;;;11.27;5.40;;;-2.80;99.90;;;;;;5004388;28;20049;-36
2023/04/06 01:30:07;;;;;;;9.00;6.22;;;-2.80;99.90;;;;;;5006972;28;20634;-36
2023/04/06 01:32:46;;;;;;;6.75;6.32;;;-2.90;99.90;;;;;;5022313;28;20402;-37
2023/04/06 01:35:19;;;;;;;8.00;6.50;;;-2.90;99.90;;;;;;5007999;28;20050;-39
2023/04/06 01:37:57;;;;;;;8.85;5.93;;;-2.80;99.90;;;;;;5008146;28;20383;-39
2023/04/06 01:40:30;;;;;;;8.05;6.47;;;-2.70;99.90;;;;;;5024728;28;20057;-39
2023/04/06 01:42:58;;;;;;;9.73;6.35;;;-2.70;99.90;;;;;;5006614;28;20050;-39
2023/04/06 01:45:34;;;;;;;7.30;6.60;;;-2.80;99.90;;;;;;5021464;28;20068;-38
2023/04/06 01:48:12;;;;;;;9.45;6.85;;;-2.80;99.90;;;;;;5023913;28;20341;-40
2023/04/06 01:50:39;;;;;;;8.65;6.90;;;-2.90;99.90;;;;;;5022014;28;20509;-39
2023/04/06 01:53:09;;;;;;;8.18;5.55;;;-3.00;99.90;;;;;;5024578;28;20060;-39
2023/04/06 01:55:38;;;;;;;9.63;6.93;;;-3.00;99.90;;;;;;5016549;28;20462;-38
2023/04/06 01:58:26;;;;;;;6.32;5.78;;;-3.00;99.90;;;;;;5021105;28;20058;-38
2023/04/06 02:00:54;;;;;;;6.93;6.15;;;-3.00;99.90;;;;;;5013514;28;20465;-38
2023/04/06 02:03:21;;;;;;;6.13;4.90;;;-2.90;99.90;;;;;;5023557;28;20045;-38
2023/04/06 02:05:57;;;;;;;9.60;7.05;;;-2.90;99.90;;;;;;5022155;28;20696;-41
2023/04/06 02:08:32;;;;;;;8.02;7.00;;;-2.80;99.90;;;;;;5006122;28;20053;-38
2023/04/06 02:10:59;;;;;;;10.18;6.72;;;-2.80;99.90;;;;;;5001754;28;20064;-38
2023/04/06 02:13:33;;;;;;;6.45;5.72;;;-2.70;99.90;;;;;;5027677;28;20422;-38
2023/04/06 02:16:02;;;;;;;8.07;5.93;;;-2.70;99.90;;;;;;5006862;28;20794;-40
2023/04/06 02:18:31;;;;;;;8.93;8.02;;;-2.90;99.90;;;;;;5023413;28;20060;-41
2023/04/06 02:20:58;;;;;;;6.25;5.65;;;-3.20;99.90;;;;;;5023422;28;20064;-38
2023/04/06 02:23:26;;;;;;;9.70;5.43;;;-3.30;99.90;;;;;;5025040;28;20049;-38
2023/04/06 02:25:54;;;;;;;10.27;6.30;;;-3.40;99.90;;;;;;5025035;28;20073;-38
2023/04/06 02:28:21;;;;;;;13.23;7.30;;;-3.40;99.90;;;;;;5026286;28;20053;-41
2023/04/06 02:30:49;;;;;;;6.35;5.75;;;-3.40;99.90;;;;;;5023046;28;20064;-37
2023/04/06 02:33:17;;;;;;;9.90;5.35;;;-3.40;99.90;;;;;;5024174;28;20062;-38
2023/04/06 02:35:47;;;;;;;8.35;6.93;;;-3.40;99.90;;;;;;5020582;28;20477;-39
2023/04/06 02:38:15;;;;;;;7.13;6.28;;;-3.30;99.90;;;;;;5019355;28;20294;-38
2023/04/06 02:40:42;;;;;;;7.13;6.18;;;-3.20;99.90;;;;;;5021420;28;20053;-39
2023/04/06 02:43:20;;;;;;;9.40;7.45;;;-3.10;99.90;;;;;;5000931;28;20061;-40
2023/04/06 02:45:51;;;;;;;6.32;5.70;;;-3.10;99.90;;;;;;5011546;28;20053;-39
2023/04/06 02:48:21;;;;;;;8.77;7.25;;;-3.00;99.90;;;;;;5023039;28;20069;-42
2023/04/06 02:50:49;;;;;;;7.47;6.07;;;-3.00;99.90;;;;;;5025406;28;20053;-39
2023/04/06 02:53:16;;;;;;;8.20;6.03;;;-3.00;99.90;;;;;;5028457;28;20398;-39
2023/04/06 02:55:44;;;;;;;7.30;5.93;;;-3.00;99.90;;;;;;5013824;28;20255;-38
2023/04/06 02:58:11;;;;;;;6.80;6.20;;;-3.30;99.90;;;;;;5007162;28;20045;-39
2023/04/06 03:00:45;;;;;;;7.25;6.55;;;-3.50;99.90;;;;;;5011521;28;20076;-38
2023/04/06 03:03:13;;;;;;;8.43;6.32;;;-3.60;99.90;;;;;;5023379;28;20041;-38
2023/04/06 03:05:43;;;;;;;8.27;7.10;;;-3.60;99.90;;;;;;5020238;28;20411;-41
2023/04/06 03:08:11;;;;;;;12.15;7.78;;;-3.60;99.90;;;;;;5006649;28;20058;-38
2023/04/06 03:10:44;;;;;;;7.22;6.57;;;-3.50;99.90;;;;;;5010209;28;20045;-38
2023/04/06 03:13:12;;;;;;;11.98;6.95;;;-3.50;99.90;;;;;;5007823;28;20469;-38
2023/04/06 03:15:49;;;;;;;8.27;5.97;;;-3.50;99.90;;;;;;5019134;28;20050;-39
2023/04/06 03:18:24;;;;;;;12.88;6.82;;;-3.40;99.90;;;;;;5022208;28;20068;-38
2023/04/06 03:20:53;;;;;;;9.68;7.10;;;-3.40;99.90;;;;;;5020981;28;20068;-38
2023/04/06 03:23:24;;;;;;;16.58;7.47;;;-3.30;99.90;;;;;;5020356;28;20057;-38
2023/04/06 03:25:56;;;;;;;7.25;6.05;;;-3.30;99.90;;;;;;5017069;28;20303;-38
2023/04/06 03:28:24;;;;;;;7.68;6.60;;;-3.40;99.90;;;;;;5021395;28;20057;-37
2023/04/06 03:30:55;;;;;;;11.40;6.70;;;-3.50;99.90;;;;;;5021183;28;20045;-38
2023/04/06 03:33:43;;;;;;;5.75;5.18;;;-3.50;99.90;;;;;;5017147;28;20049;-39
2023/04/06 03:36:17;;;;;;;6.65;6.03;;;-3.50;99.90;;;;;;5020691;28;20513;-40
2023/04/06 03:38:45;;;;;;;11.45;7.90;;;-3.50;99.90;;;;;;5022911;28;20045;-38
2023/04/06 03:41:14;;;;;;;8.25;7.50;;;-3.50;99.90;;;;;;5021675;28;20068;-38
2023/04/06 03:43:48;;;;;;;8.25;6.85;;;-3.50;99.90;;;;;;5021004;28;20450;-38
2023/04/06 03:46:17;;;;;;;7.22;6.47;;;-3.60;99.90;;;;;;5017816;28;20064;-38
2023/04/06 03:48:48;;;;;;;14.65;8.68;;;-3.70;99.90;;;;;;5022056;28;20045;-38
2023/04/06 03:51:17;;;;;;;8.65;7.07;;;-3.70;99.90;;;;;;5022232;28;20041;-38
2023/04/06 03:53:45;;;;;;;9.50;6.15;;;-3.70;99.90;;;;;;5006206;28;20081;-39
2023/04/06 03:56:13;;;;;;;9.80;6.18;;;-3.70;99.90;;;;;;5023600;28;20072;-38
2023/04/06 03:58:40;;;;;;;9.73;7.50;;;-3.70;99.90;;;;;;5007237;28;20458;-38
2023/04/06 04:01:08;;;;;;;8.70;6.65;;;-3.70;99.90;;;;;;5012085;28;20049;-39
2023/04/06 04:03:35;;;;;;;7.82;7.03;;;-3.70;99.90;;;;;;5021971;28;20048;-38
2023/04/06 04:06:03;;;;;;;6.38;5.80;;;-3.70;99.90;;;;;;5022419;28;20050;-38
2023/04/06 04:08:31;;;;;;;8.15;7.00;;;-3.70;99.90;;;;;;5021474;28;20068;-38
2023/04/06 04:10:59;;;;;;;9.20;6.25;;;-3.70;99.90;;;;;;5022959;28;20049;-38
2023/04/06 04:13:27;;;;;;;10.95;7.25;;;-3.70;99.90;;;;;;5020459;28;20053;-39
2023/04/06 04:15:54;;;;;;;11.48;6.75;;;-3.70;99.90;;;;;;4996647;28;20045;-38
2023/04/06 04:18:22;;;;;;;9.57;7.30;;;-3.70;99.90;;;;;;5022677;28;20057;-38
2023/04/06 04:20:50;;;;;;;10.90;6.07;;;-3.70;99.90;;;;;;5021642;28;20518;-38
2023/04/06 04:23:20;;;;;;;10.87;8.37;;;-3.70;99.90;;;;;;5020134;28;20049;-39
2023/04/06 04:25:48;;;;;;;13.75;9.02;;;-3.80;99.90;;;;;;5022414;28;20304;-38
2023/04/06 04:28:16;;;;;;;7.28;6.15;;;-3.80;99.90;;;;;;5018404;28;20387;-37
2023/04/06 04:30:44;;;;;;;6.72;6.10;;;-3.90;99.90;;;;;;5020128;28;20046;-38
2023/04/06 04:33:13;;;;;;;12.70;6.25;;;-3.90;99.90;;;;;;5023213;28;20069;-42
2023/04/06 04:35:42;;;;;;;12.85;6.63;;;-4.00;99.90;;;;;;5019554;28;20057;-41
2023/04/06 04:38:13;;;;;;;7.60;6.10;;;-4.00;99.90;;;;;;5020767;28;20045;-40
2023/04/06 04:40:42;;;;;;;11.23;7.05;;;-4.00;99.90;;;;;;5022941;28;20057;-43
2023/04/06 04:43:11;;;;;;;7.88;6.28;;;-4.00;99.90;;;;;;5021524;28;20040;-38
2023/04/06 04:45:39;;;;;;;11.07;8.43;;;-4.00;99.90;;;;;;5024252;28;20046;-39
2023/04/06 04:48:32;;;;;;;11.15;7.43;;;-4.00;99.90;;;;;;4989437;28;20049;-39
2023/04/06 04:51:04;;;;;;;6.45;5.63;;;-4.00;99.90;;;;;;4985318;28;20426;-39
2023/04/06 04:53:55;;;;;;;11.55;7.38;;;-4.00;99.90;;;;;;5004471;28;20058;-36
2023/04/06 04:56:27;;;;;;;16.25;6.35;;;-4.00;99.90;;;;;;4997367;28;20053;-36
2023/04/06 04:59:01;;;;;;;6.68;6.13;;;-4.00;99.90;;;;;;5006752;28;20430;-37
2023/04/06 05:01:32;;;;;;;8.57;6.23;;;-4.10;99.90;;;;;;5005832;28;20058;-36
2023/04/06 05:04:18;;;;;;;10.52;7.20;;;-4.10;99.90;;;;;;4976379;28;20617;-35
2023/04/06 05:06:46;;;;;;;11.48;7.25;;;-4.10;99.90;;;;;;5011838;28;20503;-35
2023/04/06 05:09:14;;;;;;;25.50;7.05;;;-4.00;99.90;;;;;;4994313;28;20419;-36
2023/04/06 05:11:43;;;;;;;9.65;6.50;;;-3.90;99.90;;;;;;4991554;28;20046;-36
2023/04/06 05:14:10;;;;;;;8.95;7.72;;;-3.80;99.90;;;;;;5014538;28;20050;-36
2023/04/06 05:16:38;;;;;;;6.15;5.43;;;-3.70;99.90;;;;;;5010632;28;20064;-35
2023/04/06 05:19:06;;;;;;;9.10;6.65;;;-3.70;99.90;;;;;;5003607;28;20050;-36
2023/04/06 05:21:40;;;;;;;6.93;5.75;;;-3.60;99.90;;;;;;5011430;28;20056;-36
2023/04/06 05:24:09;;;;;;;9.13;8.05;;;-3.50;99.90;;;;;;4984197;28;20054;-36
2023/04/06 05:26:38;;;;;;;8.88;8.07;;;-3.50;99.90;;;;;;4985573;28;20049;-35
2023/04/06 05:29:12;;;;;;;9.93;7.90;;;-3.40;99.90;;;;;;5008688;28;20506;-35
2023/04/06 05:31:40;;;;;;;11.90;8.65;;;-3.30;99.90;;;;;;5003714;28;20049;-36
2023/04/06 05:34:09;;;;;;;10.50;7.45;;;-3.20;99.90;;;;;;5004715;28;20050;-37
2023/04/06 05:36:38;;;;;;;11.95;9.25;;;-3.10;99.90;;;;;;5006961;28;20292;-37
2023/04/06 05:39:14;;;;;;;10.52;7.60;;;-3.00;99.90;;;;;;4993452;28;20077;-37
2023/04/06 05:41:45;;;;;;;11.18;6.13;;;-3.00;99.90;;;;;;5007806;28;20441;-38
2023/04/06 05:44:14;;;;;;;11.00;8.98;;;-2.90;99.90;;;;;;5006573;28;20046;-36
2023/04/06 05:46:46;;;;;;;12.30;8.80;;;-3.00;99.90;;;;;;4978690;28;20456;-37
2023/04/06 05:49:16;;;;;;;18.80;7.50;;;-2.90;99.90;;;;;;4992794;28;20052;-36
2023/04/06 05:51:44;;;;;;;7.95;7.15;;;-2.80;99.90;;;;;;4991187;28;20362;-36
2023/04/06 05:54:11;;;;;;;8.23;7.28;;;-2.70;99.90;;;;;;4987482;28;20046;-36
2023/04/06 05:56:40;;;;;;;8.80;7.82;;;-2.50;99.90;;;;;;4990635;28;20192;-36
2023/04/06 05:59:11;;;;;;;16.63;12.38;;;-2.30;99.90;;;;;;4992001;28;20057;-36
2023/04/06 06:01:40;;;;;;;13.18;8.57;;;-2.10;99.90;;;;;;4992875;28;20057;-36
2023/04/06 06:04:08;;;;;;;12.05;8.02;;;-1.70;99.90;;;;;;5007362;28;20041;-36
2023/04/06 06:06:38;;;;;;;14.73;7.82;;;-1.30;99.90;;;;;;5002523;28;20050;-36
2023/04/06 06:09:15;;;;;;;15.52;9.45;;;-0.80;99.90;;;;;;4983473;28;20061;-37
2023/04/06 06:11:53;;;;;;;14.32;9.57;;;-0.50;99.90;;;;;;4995125;28;20042;-37
2023/04/06 06:14:25;;;;;;;16.10;9.70;;;0.20;99.90;;;;;;4999462;28;20085;-36
2023/04/06 06:16:52;;;;;;;15.85;10.15;;;1.10;99.90;;;;;;5008024;28;20054;-36
2023/04/06 06:19:20;;;;;;;12.90;7.90;;;1.40;99.90;;;;;;4996430;28;20057;-37
2023/04/06 06:21:50;;;;;;;10.35;8.35;;;1.60;99.90;;;;;;5000411;28;20054;-36
2023/04/06 06:24:17;;;;;;;9.30;7.70;;;2.10;99.90;;;;;;4979938;28;20518;-36
2023/04/06 06:26:46;;;;;;;8.38;7.57;;;2.60;99.90;;;;;;4990442;28;20038;-36
2023/04/06 06:29:15;;;;;;;10.98;7.53;;;3.10;99.90;;;;;;4981527;28;20057;-36
2023/04/06 06:31:43;;;;;;;8.52;7.70;;;3.60;99.90;;;;;;4999849;28;20141;-36
2023/04/06 06:34:12;;;;;;;10.43;8.20;;;3.70;99.90;;;;;;4988395;28;20053;-35
2023/04/06 06:36:41;;;;;;;12.70;10.20;;;4.10;99.90;;;;;;5005363;28;20501;-36
2023/04/06 06:39:12;;;;;;;10.38;9.27;;;4.70;99.90;;;;;;5007891;28;20057;-36
2023/04/06 06:41:40;;;;;;;10.65;9.40;;;4.90;99.90;;;;;;5006321;28;20050;-36
2023/04/06 06:44:08;;;;;;;12.23;8.98;;;4.80;99.90;;;;;;5004912;28;20054;-37
2023/04/06 06:46:36;;;;;;;11.43;10.23;;;4.90;99.90;;;;;;5004888;28;20046;-36
2023/04/06 06:49:06;;;;;;;10.98;9.35;;;5.10;99.90;;;;;;5004755;28;20354;-35
2023/04/06 06:51:34;;;;;;;17.42;9.38;;;5.70;99.90;;;;;;5024765;28;20041;-36
2023/04/06 06:54:01;;;;;;;10.77;8.82;;;6.80;99.90;;;;;;5019847;28;20049;-35
2023/04/06 06:56:32;;;;;;;11.02;8.38;;;7.70;99.90;;;;;;5020389;28;20054;-36
2023/04/06 06:58:59;;;;;;;8.80;7.57;;;8.30;97.40;;;;;;5023264;28;20054;-36
2023/04/06 07:01:27;;;;;;;8.68;7.78;;;8.00;95.30;;;;;;5004964;28;20057;-35
2023/04/06 07:03:55;;;;;;;8.25;6.97;;;8.10;94.80;;;;;;5007245;28;20298;-38
2023/04/06 07:06:23;;;;;;;11.15;7.13;;;8.50;94.10;;;;;;5023062;28;20405;-38
2023/04/06 07:08:50;;;;;;;9.77;8.88;;;8.60;94.10;;;;;;5021312;28;20502;-37
2023/04/06 07:11:18;;;;;;;9.80;7.63;;;8.70;93.10;;;;;;5022994;28;20076;-37
2023/04/06 07:13:46;;;;;;;9.25;7.75;;;8.90;93.50;;;;;;5005444;28;20057;-38
2023/04/06 07:16:13;;;;;;;10.68;8.27;;;8.90;93.30;;;;;;5023304;28;20060;-37
2023/04/06 07:18:41;;;;;;;10.40;9.32;;;9.20;92.80;;;;;;5022711;28;20057;-37
2023/04/06 07:21:08;;;;;;;10.57;8.23;;;9.30;91.40;;;;;;5011248;28;20254;-38
2023/04/06 07:23:36;;;;;;;8.32;7.32;;;9.30;92.00;;;;;;5019537;28;20046;-38
2023/04/06 07:26:04;;;;;;;7.97;7.18;;;9.00;92.30;;;;;;5007427;28;20065;-37
2023/04/06 07:28:32;;;;;;;12.18;8.60;;;9.10;93.60;;;;;;5023880;28;20045;-38
2023/04/06 07:31:01;;;;;;;11.95;9.45;;;9.60;92.30;;;;;;5009092;28;20053;-38
2023/04/06 07:33:30;;;;;;;8.13;6.53;;;10.10;91.40;;;;;;5023964;28;20409;-38
2023/04/06 07:35:59;;;;;;;7.95;6.68;;;9.90;88.00;;;;;;5023239;28;20045;-38
2023/04/06 07:38:26;;;;;;;8.50;7.70;;;10.00;90.00;;;;;;5027320;28;20038;-38
2023/04/06 07:40:55;;;;;;;9.07;7.85;;;10.30;88.70;;;;;;5022736;28;20056;-37
2023/04/06 07:43:23;;;;;;;9.55;8.45;;;10.20;86.60;;;;;;5022721;28;20045;-37
2023/04/06 07:45:51;;;;;;;13.05;8.43;;;8.90;93.70;;;;;;5022203;28;20046;-37
2023/04/06 07:48:19;;;;;;;8.90;7.55;;;9.20;93.00;;;;;;5024922;28;20536;-38
2023/04/06 07:50:47;;;;;;;9.27;7.10;;;9.50;91.90;;;;;;5021066;28;20429;-37
2023/04/06 07:53:15;;;;;;;10.23;8.05;;;11.40;87.40;;;;;;5007475;28;20436;-37
2023/04/06 07:55:45;;;;;;;9.00;7.28;;;12.00;82.40;;;;;;5024691;28;20048;-37
2023/04/06 07:58:12;;;;;;;8.60;7.00;;;12.60;77.20;;;;;;5005086;28;20046;-37
2023/04/06 08:00:40;;;;;;;8.88;8.00;;;12.30;75.90;;;;;;5021017;28;20060;-39
2023/04/06 08:03:07;;;;;;;7.75;6.93;;;11.50;77.40;;;;;;5022985;28;20058;-38
2023/04/06 08:05:35;;;;;;;7.47;6.00;;;11.00;79.10;;;;;;5019089;28;20061;-38
2023/04/06 08:08:04;;;;;;;8.80;6.68;;;10.50;79.50;;;;;;5027021;28;20411;-38
2023/04/06 08:10:31;;;;;;;8.43;7.55;;;11.80;77.70;;;;;;5026776;28;20298;-37
2023/04/06 08:12:59;;;;;;;8.25;6.50;;;13.00;76.80;;;;;;5025037;28;20060;-38
2023/04/06 08:15:26;;;;;;;13.38;7.28;;;12.60;76.00;;;;;;5020699;28;20809;-37
2023/04/06 08:17:57;;;;;;;8.73;6.85;;;12.90;72.80;;;;;;5024014;28;20045;-38
2023/04/06 08:20:25;;;;;;;8.70;7.43;;;12.70;72.70;;;;;;5024122;28;20541;-35
2023/04/06 08:22:53;;;;;;;7.72;6.65;;;13.10;71.20;;;;;;5026767;28;20053;-35
2023/04/06 08:25:21;;;;;;;10.75;7.05;;;14.20;68.20;;;;;;5029982;28;20558;-35
2023/04/06 08:27:48;;;;;;;7.85;6.70;;;14.40;66.50;;;;;;5027758;28;20056;-35
2023/04/06 08:30:16;;;;;;;8.57;7.50;;;14.50;65.20;;;;;;5025609;28;20391;-36
2023/04/06 08:32:45;;;;;;;7.82;7.05;;;14.20;66.60;;;;;;5026425;28;20046;-36
2023/04/06 08:35:14;;;;;;;8.60;7.75;;;13.30;69.30;;;;;;5017429;28;20601;-35
2023/04/06 08:37:41;;;;;;;8.55;6.32;;;13.20;70.50;;;;;;5025968;28;20053;-35
2023/04/06 08:40:09;;;;;;;9.98;7.57;;;14.30;67.60;;;;;;5029241;28;20446;-35
2023/04/06 08:42:43;;;;;;;7.75;6.95;;;14.00;66.90;;;;;;5025639;28;20053;-36
2023/04/06 08:45:12;;;;;;;8.93;7.07;;;14.20;66.10;;;;;;5025538;28;20267;-35
2023/04/06 08:47:40;;;;;;;9.75;7.32;;;14.40;67.30;;;;;;5026090;28;20504;-37
2023/04/06 08:50:11;;;;;;;10.38;7.47;;;15.00;61.60;;;;;;5024418;28;20046;-35
2023/04/06 08:52:39;;;;;;;;;;;15.40;63.40;;;;;;5027039;28;20368;-36
2023/04/06 08:55:07;;;;;;;6.82;6.07;;;15.90;60.40;;;;;;5030600;28;19925;-35
2023/04/06 08:57:36;;;;;;;8.20;7.50;;;15.20;63.50;;;;;;5026664;28;20045;-36
2023/04/06 09:00:04;;;;;;;9.65;7.80;;;14.40;62.80;;;;;;5024634;28;20049;-36
2023/04/06 09:02:33;;;;;;;9.02;6.47;;;13.40;64.30;;;;;;5024211;28;20056;-36
2023/04/06 09:05:01;;;;;;;16.45;8.98;;;13.70;64.20;;;;;;5023912;28;20112;-35
2023/04/06 09:07:30;;;;;;;7.75;6.18;;;13.20;65.20;;;;;;5024921;28;20350;-36
2023/04/06 09:09:58;;;;;;;7.15;5.18;;;12.00;68.00;;;;;;5024356;28;20406;-36
2023/04/06 09:12:28;;;;;;;6.68;6.03;;;11.30;72.00;;;;;;5031972;28;20357;-35
2023/04/06 09:14:56;;;;;;;7.75;5.97;;;11.20;72.00;;;;;;5022780;28;20058;-35
2023/04/06 09:17:33;;;;;;;10.90;5.82;;;12.20;68.30;;;;;;5029399;28;20054;-35
2023/04/06 09:20:02;;;;;;;6.20;5.60;;;12.20;67.50;;;;;;5019602;28;20053;-36
2023/04/06 09:22:37;;;;;;;6.03;5.43;;;10.80;67.90;;;;;;5020325;28;20441;-36
2023/04/06 09:25:06;;;;;;;9.13;5.82;;;10.40;65.80;;;;;;5024938;28;20473;-36
2023/04/06 09:27:36;;;;;;;12.10;5.38;;;9.50;70.20;;;;;;5022488;28;20046;-37
2023/04/06 09:30:13;;;;;;;6.60;5.18;;;9.00;70.30;;;;;;5025782;28;20071;-36
2023/04/06 09:32:46;;;;;;;7.53;6.82;;;8.80;69.10;;;;;;5023182;28;20044;-36
2023/04/06 09:35:15;;;;;;;7.22;5.47;;;8.80;80.70;;;;;;5018139;28;20514;-37
2023/04/06 09:37:43;;;;;;;9.77;7.32;;;8.40;76.40;;;;;;5018591;28;20064;-36
2023/04/06 09:40:13;;;;;;;10.07;6.22;;;8.40;75.90;;;;;;5027982;28;20285;-36
2023/04/06 09:42:42;;;;;;;8.02;6.93;;;8.20;73.20;;;;;;5020610;28;20064;-36
2023/04/06 09:45:10;;;;;;;9.55;7.20;;;8.40;78.10;;;;;;5026305;28;20064;-35
2023/04/06 09:47:40;;;;;;;12.70;8.60;;;8.40;75.00;;;;;;5019062;28;20371;-36
2023/04/06 09:50:10;;;;;;;10.80;8.43;;;8.00;73.90;;;;;;5019185;28;20546;-36
2023/04/06 09:52:42;;;;;;;7.05;6.38;;;7.70;81.40;;;;;;5022465;28;20052;-39
2023/04/06 09:55:12;;;;;;;11.20;7.45;;;8.10;73.50;;;;;;5021558;28;20402;-36
2023/04/06 09:57:51;;;;;;;9.98;7.22;;;8.20;75.00;;;;;;5022819;28;20076;-35
2023/04/06 10:00:23;;;;;;;8.63;6.57;;;8.40;77.40;;;;;;5005954;28;20050;-36
2023/04/06 10:03:08;;;;;;;8.57;6.80;;;8.60;75.90;;;;;;5025156;28;20053;-35
2023/04/06 10:05:50;;;;;;;9.77;7.13;;;8.90;75.10;;;;;;5000076;28;20056;-35
2023/04/06 10:08:20;;;;;;;17.88;8.25;;;9.00;81.60;;;;;;5001145;28;20282;-35
2023/04/06 10:10:50;;;;;;;11.27;7.00;;;8.80;74.10;;;;;;5025871;28;20045;-38
2023/04/06 10:13:19;;;;;;;8.70;7.13;;;8.90;80.10;;;;;;5020764;28;20061;-36
2023/04/06 10:15:47;;;;;;;6.25;5.57;;;9.00;71.80;;;;;;5019493;28;20049;-35
2023/04/06 10:18:16;;;;;;;8.30;6.22;;;8.80;72.30;;;;;;5019964;28;20046;-36
2023/04/06 10:20:54;;;;;;;13.10;6.93;;;8.50;75.30;;;;;;5016768;28;20053;-36
2023/04/06 10:23:45;;;;;;;9.38;6.40;;;8.60;86.60;;;;;;5020687;28;20041;-36
2023/04/06 10:26:20;;;;;;;8.80;7.90;;;8.70;72.00;;;;;;5018540;28;20053;-35
2023/04/06 10:28:49;;;;;;;14.07;7.85;;;8.50;71.90;;;;;;5016237;28;20095;-35
2023/04/06 10:31:27;;;;;;;10.10;7.95;;;8.60;79.40;;;;;;5019286;28;20092;-36
2023/04/06 10:33:59;;;;;;;8.15;7.28;;;8.80;73.60;;;;;;5015382;28;20088;-37
2023/04/06 10:36:34;;;;;;;7.15;6.50;;;8.90;75.70;;;;;;5021035;28;20415;-36
2023/04/06 10:39:06;;;;;;;7.93;7.03;;;8.90;71.90;;;;;;5026022;28;20389;-36
2023/04/06 10:41:34;;;;;;;12.40;9.95;;;8.60;74.90;;;;;;5020719;28;20045;-36
2023/04/06 10:44:02;;;;;;;10.85;8.07;;;8.30;82.50;;;;;;5018827;28;20459;-36
2023/04/06 10:46:31;;;;;;;8.55;6.40;;;8.00;74.90;;;;;;5019078;28;20053;-36
2023/04/06 10:49:13;;;;;;;8.38;7.57;;;8.20;76.30;;;;;;5018014;28;20052;-36
2023/04/06 10:51:41;;;;;;;8.75;7.40;;;8.70;72.40;;;;;;5012815;28;20321;-35
2023/04/06 10:54:11;;;;;;;10.60;9.68;;;8.60;74.90;;;;;;5023998;28;20364;-35
2023/04/06 10:56:39;;;;;;;8.85;7.55;;;8.50;71.00;;;;;;5027799;28;20565;-35
2023/04/06 10:59:07;;;;;;;8.73;7.43;;;8.20;74.50;;;;;;5023366;28;20049;-35
2023/04/06 11:01:35;;;;;;;9.25;8.32;;;8.10;80.80;;;;;;5018060;28;20050;-35
2023/04/06 11:04:03;;;;;;;9.60;8.00;;;7.80;75.70;;;;;;5015836;28;20049;-36
2023/04/06 11:06:32;;;;;;;9.57;8.45;;;7.70;75.60;;;;;;5014876;28;20293;-48
2023/04/06 11:09:00;;;;;;;9.75;8.82;;;8.00;83.90;;;;;;5016557;28;20049;-48
2023/04/06 11:11:27;;;;;;;7.82;6.53;;;8.50;78.20;;;;;;5018664;28;20049;-47
2023/04/06 11:13:57;;;;;;;11.57;7.88;;;9.20;75.80;;;;;;5019843;28;20048;-49
2023/04/06 11:16:30;;;;;;;8.60;7.82;;;9.20;73.10;;;;;;5012168;28;20053;-47
2023/04/06 11:19:01;;;;;;;8.38;7.25;;;8.80;84.00;;;;;;5023894;28;20049;-48
2023/04/06 11:21:41;;;;;;;8.45;6.63;;;8.90;79.60;;;;;;5002025;28;20053;-48
2023/04/06 11:24:20;;;;;;;9.77;8.10;;;9.00;76.90;;;;;;5017697;28;20053;-48
2023/04/06 11:26:50;;;;;;;13.45;8.60;;;9.30;79.40;;;;;;5021476;28;20514;-47
2023/04/06 11:29:20;;;;;;;8.18;6.95;;;9.40;76.60;;;;;;5017436;28;20045;-48
2023/04/06 11:31:50;;;;;;;7.07;6.47;;;9.50;79.90;;;;;;5017021;28;20041;-48
2023/04/06 11:34:23;;;;;;;7.95;6.80;;;9.20;90.20;;;;;;5017121;28;20530;-47
2023/04/06 11:36:59;;;;;;;8.50;7.22;;;9.60;74.50;;;;;;5022878;28;20045;-48
2023/04/06 11:39:28;;;;;;;9.23;7.85;;;9.40;77.10;;;;;;5019029;28;20042;-48
2023/04/06 11:42:03;;;;;;;7.60;6.90;;;9.30;74.90;;;;;;5022634;28;20060;-48
2023/04/06 11:44:45;;;;;;;11.98;8.65;;;9.40;79.90;;;;;;5023984;28;20395;-48
2023/04/06 11:47:13;;;;;;;9.75;7.00;;;9.90;75.10;;;;;;5019385;28;20056;-48
2023/04/06 11:49:44;;;;;;;9.63;8.70;;;10.00;75.60;;;;;;5017422;28;20053;-48
2023/04/06 11:52:26;;;;;;;9.23;7.10;;;10.10;73.20;;;;;;5025006;28;20358;-48
2023/04/06 11:54:56;;;;;;;;;;;10.10;75.70;;;;;;5021563;28;20060;-48
2023/04/06 11:57:27;;;;;;;11.27;7.10;;;9.80;69.50;;;;;;5016940;28;20456;-48
2023/04/06 11:59:55;;;;;;;9.40;7.65;;;9.60;73.80;;;;;;5016774;28;20041;-48
2023/04/06 12:02:22;;;;;;;13.63;7.53;;;9.40;75.70;;;;;;5024688;28;20053;-48
2023/04/06 12:04:50;;;;;;;8.38;6.18;;;9.90;75.60;;;;;;5016788;28;20058;-48
2023/04/06 12:07:18;;;;;;;8.40;6.82;;;10.60;80.60;;;;;;5020215;28;20053;-48
2023/04/06 12:09:46;;;;;;;12.63;8.18;;;10.90;69.60;;;;;;5024762;28;20115;-49
2023/04/06 12:12:13;;;;;;;7.20;6.45;;;10.30;71.60;;;;;;5021885;28;20429;-49
2023/04/06 12:14:41;;;;;;;7.80;6.90;;;10.10;79.60;;;;;;5024298;28;20075;-48
2023/04/06 12:17:08;;;;;;;9.45;7.95;;;9.70;73.90;;;;;;4999990;28;20053;-49
2023/04/06 12:19:36;;;;;;;10.00;7.43;;;9.10;75.00;;;;;;5018519;28;20040;-48
2023/04/06 12:22:04;;;;;;;10.98;9.85;;;9.30;73.50;;;;;;5023168;28;20498;-48
2023/04/06 12:24:31;;;;;;;5.68;5.03;;;9.60;70.90;;;;;;5012395;28;20080;-48
2023/04/06 12:26:59;;;;;;;9.02;5.65;;;9.70;70.50;;;;;;5022048;28;20053;-47
2023/04/06 12:29:38;;;;;;;6.80;6.07;;;9.70;70.10;;;;;;5019404;28;20053;-48
2023/04/06 12:32:06;;;;;;;8.18;7.35;;;9.50;73.10;;;;;;5018234;28;20076;-48
2023/04/06 12:34:34;;;;;;;9.63;7.18;;;9.50;71.00;;;;;;5017499;28;20907;-48
2023/04/06 12:37:02;;;;;;;8.20;7.35;;;9.40;75.70;;;;;;5021498;28;20053;-48
2023/04/06 12:39:30;;;;;;;9.95;6.75;;;9.50;70.20;;;;;;5023890;28;20057;-48
2023/04/06 12:41:57;;;;;;;7.57;6.45;;;9.60;70.10;;;;;;5023439;28;20576;-49
2023/04/06 12:44:25;;;;;;;7.85;6.95;;;9.80;73.60;;;;;;5023566;28;20061;-48
2023/04/06 12:46:53;;;;;;;6.65;5.97;;;9.60;74.50;;;;;;5024207;28;20061;-47
2023/04/06 12:49:21;;;;;;;7.28;5.75;;;9.40;70.30;;;;;;5019785;28;20053;-48
2023/04/06 12:51:50;;;;;;;8.48;6.00;;;9.20;73.70;;;;;;5017879;28;20525;-48
2023/04/06 12:54:17;;;;;;;7.63;6.82;;;9.10;73.80;;;;;;5024245;28;20053;-48
2023/04/06 12:56:45;;;;;;;6.75;6.15;;;9.00;72.90;;;;;;5019319;28;20053;-48
2023/04/06 12:59:13;;;;;;;7.78;6.97;;;8.90;72.50;;;;;;5002966;28;20054;-48
2023/04/06 13:01:40;;;;;;;7.85;6.05;;;8.80;71.80;;;;;;5020150;28;20084;-48
2023/04/06 13:04:08;;;;;;;9.95;6.10;;;8.90;73.10;;;;;;5023947;28;20064;-48